createdAt,value
2022-12-15T00:00:24.722Z,42.30
2022-12-15T00:03:45.400Z,42.47
2022-12-15T00:07:05.752Z,41.57
2022-12-15T00:10:26.609Z,35.47
2022-12-15T00:13:46.841Z,39.03
2022-12-15T00:17:08.294Z,37.63
2022-12-15T00:20:28.909Z,36.90
2022-12-15T00:23:49.315Z,36.07
2022-12-15T00:27:09.494Z,41.53
2022-12-15T00:30:30.669Z,44.60
2022-12-15T00:33:51.973Z,37.60
2022-12-15T00:37:12.199Z,38.73
2022-12-15T00:40:15.064Z,42.83
2022-12-15T00:43:17.771Z,37.70
2022-12-15T00:46:37.949Z,42.43
2022-12-15T00:50:10.895Z,43.47
2022-12-15T00:53:31.395Z,34.80
2022-12-15T00:56:52.038Z,39.60
2022-12-15T01:00:12.431Z,36.13
2022-12-15T01:03:35.146Z,37.73
2022-12-15T01:06:57.459Z,35.40
2022-12-15T01:10:17.864Z,32.53
2022-12-15T01:13:40.259Z,28.87
2022-12-15T01:17:00.565Z,35.17
2022-12-15T01:20:18.145Z,40.03
2022-12-15T01:23:22.235Z,43.03
2022-12-15T01:26:25.075Z,35.80
2022-12-15T01:29:27.809Z,36.03
2022-12-15T01:32:32.213Z,30.03
2022-12-15T01:35:34.897Z,33.67
2022-12-15T01:38:39.247Z,33.20
2022-12-15T01:41:41.000Z,30.30
2022-12-15T01:44:50.566Z,40.27
2022-12-15T01:47:54.648Z,37.77
2022-12-15T01:51:05.720Z,35.83
2022-12-15T01:54:14.161Z,35.50
2022-12-15T01:57:22.251Z,40.00
2022-12-15T02:00:25.246Z,38.80
2022-12-15T02:03:29.339Z,44.77
2022-12-15T02:06:32.444Z,36.10
2022-12-15T02:09:39.152Z,34.13
2022-12-15T02:12:45.450Z,31.77
2022-12-15T02:15:52.394Z,30.33
2022-12-15T02:19:00.973Z,29.97
2022-12-15T02:22:19.047Z,30.13
2022-12-15T02:25:42.370Z,32.30
2022-12-15T02:28:58.455Z,30.63
2022-12-15T02:32:09.388Z,29.03
2022-12-15T02:35:18.766Z,28.03
2022-12-15T02:38:31.076Z,38.47
2022-12-15T02:41:38.000Z,113.77
2022-12-15T02:44:53.163Z,52.00
2022-12-15T02:48:11.428Z,39.47
2022-12-15T02:51:27.637Z,32.67
2022-12-15T02:54:58.988Z,27.23
2022-12-15T02:58:05.752Z,50.07
2022-12-15T03:01:13.235Z,56.03
2022-12-15T03:04:18.641Z,30.93
2022-12-15T03:07:23.940Z,47.20
2022-12-15T03:10:33.690Z,38.20
2022-12-15T03:13:36.443Z,34.53
2022-12-15T03:16:39.523Z,32.77
2022-12-15T03:19:43.647Z,28.47
2022-12-15T03:22:46.408Z,27.97
2022-12-15T03:25:49.681Z,36.30
2022-12-15T03:28:52.800Z,31.47
2022-12-15T03:31:55.632Z,33.87
2022-12-15T03:35:01.064Z,27.87
2022-12-15T03:38:03.827Z,30.73
2022-12-15T03:41:06.770Z,27.87
2022-12-15T03:44:10.226Z,28.37
2022-12-15T03:47:12.994Z,29.27
2022-12-15T03:50:19.292Z,28.93
2022-12-15T03:53:22.098Z,27.93
2022-12-15T03:56:24.905Z,26.33
2022-12-15T03:59:27.679Z,35.27
2022-12-15T04:02:30.743Z,35.47
2022-12-15T04:05:36.077Z,44.47
2022-12-15T04:08:39.526Z,33.93
2022-12-15T04:11:42.269Z,31.87
2022-12-15T04:14:45.058Z,28.07
2022-12-15T04:17:47.856Z,33.30
2022-12-15T04:20:58.312Z,36.83
2022-12-15T04:24:18.648Z,31.43
2022-12-15T04:27:39.120Z,34.37
2022-12-15T04:31:04.109Z,35.00
2022-12-15T04:34:32.015Z,33.07
2022-12-15T04:37:53.768Z,31.40
2022-12-15T04:41:17.053Z,32.03
2022-12-15T04:44:38.047Z,31.67
2022-12-15T04:48:04.296Z,31.10
2022-12-15T04:51:24.972Z,26.27
2022-12-15T04:54:46.392Z,32.27
2022-12-15T04:58:06.502Z,31.47
2022-12-15T05:01:26.783Z,32.40
2022-12-15T05:04:47.613Z,28.50
2022-12-15T05:08:16.645Z,32.93
2022-12-15T05:11:38.112Z,31.37
2022-12-15T05:14:58.256Z,27.50
2022-12-15T05:18:18.697Z,28.50
2022-12-15T05:21:39.109Z,30.93
2022-12-15T05:24:59.334Z,35.77
2022-12-15T05:28:24.424Z,33.33
2022-12-15T05:31:44.601Z,34.67
2022-12-15T05:34:47.357Z,36.77
2022-12-15T05:37:50.648Z,33.67
2022-12-15T05:40:53.456Z,38.70
2022-12-15T05:44:00.848Z,38.70
2022-12-15T05:47:04.914Z,28.07
2022-12-15T05:50:09.080Z,31.70
2022-12-15T05:53:13.236Z,29.37
2022-12-15T05:56:16.174Z,33.67
2022-12-15T05:59:20.542Z,35.47
2022-12-15T06:02:26.848Z,34.63
2022-12-15T06:05:29.603Z,33.00
2022-12-15T06:08:35.224Z,36.90
2022-12-15T06:11:38.433Z,37.50
2022-12-15T06:14:42.526Z,39.67
2022-12-15T06:17:45.518Z,38.93
2022-12-15T06:20:58.549Z,42.83
2022-12-15T06:24:01.954Z,36.57
2022-12-15T06:27:04.891Z,39.03
2022-12-15T06:30:10.118Z,44.50
2022-12-15T06:33:13.723Z,55.17
2022-12-15T06:36:17.683Z,45.03
2022-12-15T06:39:20.547Z,40.60
2022-12-15T06:42:23.292Z,49.43
2022-12-15T06:45:27.391Z,46.53
2022-12-15T06:48:30.286Z,37.37
2022-12-15T06:51:33.051Z,34.87
2022-12-15T06:54:35.831Z,37.73
2022-12-15T06:57:38.923Z,44.80
2022-12-15T07:00:44.840Z,37.27
2022-12-15T07:03:47.923Z,44.57
2022-12-15T07:06:53.294Z,53.80
2022-12-15T07:09:56.094Z,56.87
2022-12-15T07:12:59.210Z,47.87
2022-12-15T07:16:08.675Z,47.70
2022-12-15T07:19:13.354Z,80.20
2022-12-15T07:22:16.122Z,71.43
2022-12-15T07:25:19.415Z,45.77
2022-12-15T07:28:25.806Z,51.47
2022-12-15T07:31:31.784Z,80.90
2022-12-15T07:34:40.000Z,59.23
2022-12-15T07:37:42.703Z,68.83
2022-12-15T07:40:45.634Z,66.07
2022-12-15T07:43:48.499Z,41.20
2022-12-15T07:46:52.807Z,35.47
2022-12-15T07:49:59.364Z,31.07
2022-12-15T07:53:05.487Z,29.27
2022-12-15T07:56:10.399Z,40.70
2022-12-15T07:59:13.282Z,47.70
2022-12-15T08:02:17.834Z,53.17
2022-12-15T08:05:20.695Z,42.17
2022-12-15T08:08:25.311Z,42.43
2022-12-15T08:11:35.219Z,40.97
2022-12-15T08:14:37.938Z,38.67
2022-12-15T08:17:42.426Z,38.97
2022-12-15T08:20:45.149Z,35.00
2022-12-15T08:23:53.441Z,45.37
2022-12-15T08:26:56.428Z,60.37
2022-12-15T08:29:59.479Z,52.90
2022-12-15T08:33:04.067Z,32.03
2022-12-15T08:36:09.299Z,41.40
2022-12-15T08:39:14.430Z,39.30
2022-12-15T08:42:17.259Z,36.30
2022-12-15T08:45:19.913Z,48.37
2022-12-15T08:48:24.060Z,37.23
2022-12-15T08:51:29.248Z,41.27
2022-12-15T08:54:32.553Z,41.17
2022-12-15T08:57:35.476Z,38.33
2022-12-15T09:00:41.782Z,42.67
2022-12-15T09:03:46.927Z,58.97
2022-12-15T09:06:50.822Z,44.20
2022-12-15T09:09:54.068Z,56.53
2022-12-15T09:12:56.852Z,45.60
2022-12-15T09:16:09.559Z,40.07
2022-12-15T09:19:17.761Z,58.83
2022-12-15T09:22:20.867Z,48.67
2022-12-15T09:25:26.634Z,50.83
2022-12-15T09:28:30.248Z,46.57
2022-12-15T09:31:34.535Z,27.87
2022-12-15T09:34:41.044Z,27.20
2022-12-15T09:37:47.097Z,34.97
2022-12-15T09:40:55.055Z,34.10
2022-12-15T09:44:03.040Z,36.60
2022-12-15T09:47:16.727Z,28.90
2022-12-15T09:50:27.200Z,52.47
2022-12-15T09:53:54.112Z,30.10
2022-12-15T09:56:57.842Z,28.13
2022-12-15T10:00:33.157Z,12.53
2022-12-15T10:03:47.487Z,5.83
2022-12-15T10:07:10.241Z,17.87
2022-12-15T10:10:18.642Z,25.53
2022-12-15T10:13:25.533Z,32.07
2022-12-15T10:16:35.424Z,23.37
2022-12-15T10:19:44.884Z,23.53
2022-12-15T10:22:56.687Z,33.57
2022-12-15T10:26:02.395Z,38.47
2022-12-15T10:29:18.066Z,20.60
2022-12-15T10:32:33.306Z,23.07
2022-12-15T10:35:39.715Z,30.67
2022-12-15T10:38:47.320Z,55.73
2022-12-15T10:42:23.152Z,35.40
2022-12-15T10:45:36.771Z,27.13
2022-12-15T10:48:39.452Z,17.87
2022-12-15T10:51:46.060Z,10.87
2022-12-15T10:54:52.595Z,31.47
2022-12-15T10:57:59.852Z,36.00
2022-12-15T11:01:08.293Z,27.73
2022-12-15T11:04:27.217Z,26.83
2022-12-15T11:07:35.670Z,29.77
2022-12-15T11:11:10.152Z,21.73
2022-12-15T11:14:18.361Z,29.33
2022-12-15T11:17:24.860Z,21.73
2022-12-15T11:20:33.690Z,32.77
2022-12-15T11:24:00.483Z,45.57
2022-12-15T11:27:13.769Z,57.13
2022-12-15T11:30:18.952Z,37.70
2022-12-15T11:33:23.897Z,34.57
2022-12-15T11:36:54.684Z,50.10
2022-12-15T11:40:13.077Z,32.70
2022-12-15T11:43:32.785Z,32.67
2022-12-15T11:46:44.557Z,27.20
2022-12-15T11:50:16.990Z,35.93
2022-12-15T11:53:52.110Z,37.67
2022-12-15T11:57:00.709Z,42.87
2022-12-15T12:00:11.658Z,42.77
2022-12-15T12:03:35.979Z,35.83
2022-12-15T12:06:52.388Z,42.27
2022-12-15T12:10:13.290Z,36.40
2022-12-15T12:13:29.530Z,34.97
2022-12-15T12:16:45.412Z,40.40
2022-12-15T12:19:52.757Z,40.50
2022-12-15T12:23:10.049Z,36.40
2022-12-15T12:26:20.415Z,38.63
2022-12-15T12:29:31.114Z,45.67
2022-12-15T12:32:45.992Z,38.40
2022-12-15T12:35:56.661Z,41.27
2022-12-15T12:39:00.117Z,30.10
2022-12-15T12:42:08.834Z,37.70
2022-12-15T12:45:13.498Z,36.50
2022-12-15T12:48:27.058Z,33.47
2022-12-15T12:51:31.594Z,40.27
2022-12-15T12:54:54.945Z,43.83
2022-12-15T12:57:58.014Z,36.17
2022-12-15T13:01:07.988Z,36.70
2022-12-15T13:04:14.723Z,39.83
2022-12-15T13:07:30.661Z,40.20
2022-12-15T13:10:34.465Z,39.03
2022-12-15T13:13:51.149Z,35.40
2022-12-15T13:17:24.868Z,36.80
2022-12-15T13:20:27.605Z,39.50
2022-12-15T13:23:43.898Z,40.00
2022-12-15T13:26:48.699Z,54.03
2022-12-15T13:30:03.643Z,48.80
2022-12-15T13:33:19.562Z,47.80
2022-12-15T13:36:54.810Z,36.97
2022-12-15T13:39:59.735Z,41.47
2022-12-15T13:43:11.413Z,34.77
2022-12-15T13:46:19.633Z,32.87
2022-12-15T13:49:30.858Z,41.57
2022-12-15T13:56:07.911Z,37.10
2022-12-15T13:59:27.987Z,35.13
2022-12-15T14:02:32.378Z,42.27
2022-12-15T14:05:36.562Z,35.00
2022-12-15T14:08:41.023Z,35.17
2022-12-15T14:11:53.221Z,37.03
2022-12-15T14:14:56.561Z,45.37
2022-12-15T14:18:02.048Z,38.67
2022-12-15T14:21:13.866Z,37.77
2022-12-15T14:24:38.523Z,35.87
2022-12-15T14:27:46.041Z,37.20
2022-12-15T14:31:01.027Z,33.40
2022-12-15T14:34:12.505Z,33.30
2022-12-15T14:37:21.395Z,39.67
2022-12-15T14:40:29.159Z,39.47
2022-12-15T14:43:36.384Z,36.33
2022-12-15T14:46:39.697Z,39.90
2022-12-15T14:49:46.162Z,36.53
2022-12-15T14:52:53.716Z,39.83
2022-12-15T14:55:59.399Z,39.10
2022-12-15T14:59:04.701Z,43.10
2022-12-15T15:02:25.094Z,35.10
2022-12-15T15:03:11.857Z,38.13
2022-12-15T15:05:33.836Z,36.00
2022-12-15T15:08:43.386Z,38.03
2022-12-15T15:11:49.960Z,36.73
2022-12-15T15:14:55.815Z,64.30
2022-12-15T15:18:01.151Z,39.43
2022-12-15T15:21:07.209Z,43.37
2022-12-15T15:24:24.891Z,80.67
2022-12-15T15:27:35.873Z,56.43
2022-12-15T15:30:44.201Z,75.77
2022-12-15T15:33:47.054Z,68.90
2022-12-15T15:36:51.674Z,64.43
2022-12-15T15:39:56.285Z,65.93
2022-12-15T15:43:01.073Z,60.53
2022-12-15T15:46:09.331Z,61.60
2022-12-15T15:49:17.292Z,58.73
2022-12-15T15:52:20.305Z,58.90
2022-12-15T15:55:33.692Z,56.80
2022-12-15T15:58:42.896Z,49.23
2022-12-15T16:01:47.875Z,58.60
2022-12-15T16:04:53.328Z,50.37
2022-12-15T16:07:56.714Z,62.03
2022-12-15T16:10:59.435Z,73.70
2022-12-15T16:14:11.833Z,85.57
2022-12-15T16:17:16.658Z,115.87
2022-12-15T16:20:21.288Z,267.30
2022-12-15T16:23:29.949Z,109.53
2022-12-15T16:26:33.926Z,67.53
2022-12-15T16:29:38.281Z,67.17
2022-12-15T16:32:41.102Z,61.23
2022-12-15T16:35:45.338Z,61.00
2022-12-15T16:38:48.112Z,63.50
2022-12-15T16:41:53.266Z,85.00
2022-12-15T16:44:57.504Z,55.17
2022-12-15T16:48:00.771Z,85.67
2022-12-15T16:51:07.742Z,85.47
2022-12-15T16:54:17.776Z,110.00
2022-12-15T16:57:20.474Z,80.93
2022-12-15T17:00:27.377Z,60.63
2022-12-15T17:03:30.140Z,84.10
2022-12-15T17:06:32.967Z,68.40
2022-12-15T17:09:38.092Z,64.83
2022-12-15T17:12:41.188Z,60.87
2022-12-15T17:15:45.447Z,54.13
2022-12-15T17:18:48.565Z,61.20
2022-12-15T17:21:53.865Z,57.17
2022-12-15T17:24:56.536Z,54.13
2022-12-15T17:28:00.553Z,65.00
2022-12-15T17:31:05.067Z,80.20
2022-12-15T17:34:31.342Z,81.30
2022-12-15T17:37:35.541Z,73.87
2022-12-15T17:40:38.412Z,90.20
2022-12-15T17:43:42.209Z,76.87
2022-12-15T17:46:49.295Z,78.43
2022-12-15T17:49:52.975Z,82.53
2022-12-15T17:52:55.750Z,80.83
2022-12-15T17:55:58.638Z,65.43
2022-12-15T17:59:05.607Z,63.97
2022-12-15T18:02:13.272Z,56.63
2022-12-15T18:05:17.657Z,54.90
2022-12-15T18:08:22.895Z,79.23
2022-12-15T18:11:27.750Z,76.73
2022-12-15T18:14:33.829Z,78.53
2022-12-15T18:17:37.957Z,79.50
2022-12-15T18:20:41.168Z,69.13
2022-12-15T18:23:45.456Z,78.23
2022-12-15T18:26:48.802Z,73.63
2022-12-15T18:29:54.753Z,65.20
2022-12-15T18:33:05.123Z,63.63
2022-12-15T18:36:09.602Z,76.70
2022-12-15T18:39:20.148Z,77.87
2022-12-15T18:42:23.226Z,84.97
2022-12-15T18:45:28.344Z,78.83
2022-12-15T18:48:35.278Z,70.90
2022-12-15T18:51:38.576Z,64.40
2022-12-15T18:54:41.409Z,84.80
2022-12-15T18:57:44.281Z,57.00
2022-12-15T19:00:47.524Z,56.03
2022-12-15T19:03:52.017Z,92.77
2022-12-15T19:06:54.868Z,78.30
2022-12-15T19:09:58.225Z,71.90
2022-12-15T19:13:01.252Z,69.57
2022-12-15T19:16:06.109Z,71.17
2022-12-15T19:19:29.922Z,78.67
2022-12-15T19:22:32.757Z,62.67
2022-12-15T19:25:36.344Z,73.83
2022-12-15T19:28:39.235Z,72.83
2022-12-15T19:31:41.926Z,71.20
2022-12-15T19:34:46.226Z,67.57
2022-12-15T19:37:50.129Z,64.97
2022-12-15T19:40:56.121Z,70.90
2022-12-15T19:43:58.804Z,72.83
2022-12-15T19:47:01.952Z,75.40
2022-12-15T19:50:06.658Z,68.77
2022-12-15T19:53:16.879Z,69.60
2022-12-15T19:56:22.703Z,70.70
2022-12-15T19:59:28.388Z,69.27
2022-12-15T20:02:31.163Z,76.97
2022-12-15T20:05:36.718Z,64.87
2022-12-15T20:08:42.495Z,68.47
2022-12-15T20:11:45.721Z,66.30
2022-12-15T20:14:48.605Z,68.23
2022-12-15T20:17:57.883Z,64.27
2022-12-15T20:21:02.220Z,65.90
2022-12-15T20:24:08.159Z,70.93
2022-12-15T20:27:14.224Z,79.70
2022-12-15T20:30:19.845Z,59.90
2022-12-15T20:33:23.106Z,67.03
2022-12-15T20:36:26.619Z,71.53
2022-12-15T20:39:31.086Z,65.47
2022-12-15T20:42:34.006Z,61.47
2022-12-15T20:45:36.915Z,71.60
2022-12-15T20:48:40.250Z,76.37
2022-12-15T20:51:43.133Z,72.87
2022-12-15T20:54:47.744Z,73.27
2022-12-15T20:57:50.501Z,80.43
2022-12-15T21:00:55.221Z,74.90
2022-12-15T21:03:59.260Z,70.83
2022-12-15T21:07:02.007Z,81.10
2022-12-15T21:10:06.716Z,90.53
2022-12-15T21:13:20.145Z,76.40
2022-12-15T21:16:24.808Z,82.60
2022-12-15T21:19:27.742Z,77.70
2022-12-15T21:22:30.833Z,71.20
2022-12-15T21:25:34.859Z,78.13
2022-12-15T21:28:37.555Z,96.20
2022-12-15T21:31:40.255Z,82.30
2022-12-15T21:34:42.978Z,70.83
2022-12-15T21:37:48.574Z,71.67
2022-12-15T21:40:59.154Z,64.67
2022-12-15T21:44:02.868Z,56.33
2022-12-15T21:47:11.266Z,74.50
2022-12-15T21:50:13.110Z,77.73
2022-12-15T21:53:17.587Z,71.67
2022-12-15T21:56:22.613Z,77.10
2022-12-15T21:59:26.524Z,75.20
2022-12-15T22:02:29.358Z,62.70
2022-12-15T22:05:32.593Z,63.70
2022-12-15T22:08:35.865Z,63.17
2022-12-15T22:11:42.456Z,60.90
2022-12-15T22:14:45.303Z,70.87
2022-12-15T22:17:48.336Z,70.33
2022-12-15T22:20:52.452Z,63.97
2022-12-15T22:23:55.163Z,53.33
2022-12-15T22:26:59.423Z,56.47
2022-12-15T22:30:02.164Z,65.23
2022-12-15T22:33:10.988Z,68.53
2022-12-15T22:36:13.704Z,75.60
2022-12-15T22:39:16.470Z,62.23
2022-12-15T22:42:20.540Z,61.37
2022-12-15T22:45:24.258Z,65.17
2022-12-15T22:48:34.343Z,62.43
2022-12-15T22:51:37.284Z,60.10
2022-12-15T22:54:43.995Z,58.80
2022-12-15T22:58:00.677Z,55.20
2022-12-15T23:01:06.511Z,52.97
2022-12-15T23:04:09.927Z,63.87
2022-12-15T23:07:12.588Z,69.07
2022-12-15T23:10:35.361Z,64.17
2022-12-15T23:13:39.467Z,62.20
2022-12-15T23:16:42.348Z,64.80
2022-12-15T23:19:45.986Z,61.87
2022-12-15T23:22:49.239Z,62.40
2022-12-15T23:25:51.907Z,49.30
2022-12-15T23:28:56.247Z,53.87
2022-12-15T23:31:58.902Z,57.57
2022-12-15T23:35:02.349Z,50.97
2022-12-15T23:38:05.019Z,59.50
2022-12-15T23:41:08.061Z,51.47
2022-12-15T23:44:12.387Z,53.03
2022-12-15T23:47:15.203Z,50.80
2022-12-15T23:50:18.397Z,55.10
2022-12-15T23:53:21.240Z,49.47
2022-12-15T23:56:25.422Z,52.13
2022-12-15T23:59:29.538Z,49.63
